Time;durP1;ratioP1;P1;durP2;ratioP2;P2;SDS_P1;SDS_P2;PMS_P1;PMS_P2;Temp;Humidity;BMP_temperature;BMP_pressure;BME280_temperature;BME280_humidity;BME280_pressure;Samples;Min_cycle;Max_cycle;Signal;HPM_P1;HPM_P2
2022/01/13 00:02:19;;;;;;;141.15;50.40;;;2.90;99.90;;;;;;5111588;28;20027;-65
2022/01/13 00:04:46;;;;;;;125.32;44.67;;;2.90;99.90;;;;;;5111387;28;20467;-65
2022/01/13 00:07:12;;;;;;;144.57;50.40;;;2.90;99.90;;;;;;5109755;28;20110;-66
2022/01/13 00:09:37;;;;;;;132.35;49.22;;;2.90;99.90;;;;;;5109676;28;20115;-65
2022/01/13 00:12:04;;;;;;;131.25;46.80;;;2.90;99.90;;;;;;5110473;28;20024;-65
2022/01/13 00:17:30;;;;;;;131.30;47.03;;;2.90;99.90;;;;;;5110669;28;20545;-66
2022/01/13 00:20:11;;;;;;;127.88;47.50;;;2.90;99.90;;;;;;5109995;28;20035;-65
2022/01/13 00:22:48;;;;;;;123.38;46.80;;;2.90;99.90;;;;;;5110175;28;20019;-66
2022/01/13 00:25:16;;;;;;;126.97;46.78;;;2.80;99.90;;;;;;5110925;28;20157;-65
2022/01/13 00:27:48;;;;;;;128.48;45.85;;;2.80;99.90;;;;;;5109755;28;20027;-65
2022/01/13 00:30:17;;;;;;;131.50;47.83;;;2.90;99.90;;;;;;5109768;28;20089;-65
2022/01/13 00:32:44;;;;;;;134.82;48.63;;;2.90;99.90;;;;;;5111075;28;20024;-66
2022/01/13 00:35:10;;;;;;;136.30;50.22;;;2.90;99.90;;;;;;5126728;27;20042;-66
2022/01/13 00:37:37;;;;;;;152.45;53.55;;;2.90;99.90;;;;;;5092196;28;20035;-65
2022/01/13 00:40:05;;;;;;;160.85;54.35;;;2.80;99.90;;;;;;5109129;28;20020;-66
2022/01/13 00:42:31;;;;;;;153.30;55.05;;;2.80;99.90;;;;;;5110439;28;20478;-65
2022/01/13 00:44:56;;;;;;;144.73;55.53;;;2.80;99.90;;;;;;5109087;28;20031;-65
2022/01/13 00:47:22;;;;;;;154.02;54.33;;;2.80;99.90;;;;;;5109011;28;20384;-65
2022/01/13 00:49:47;;;;;;;158.00;56.45;;;2.80;99.90;;;;;;5110460;28;20023;-65
2022/01/13 00:52:13;;;;;;;151.00;56.08;;;2.80;99.90;;;;;;5126190;27;20094;-65
2022/01/13 00:54:40;;;;;;;154.30;57.90;;;2.70;99.90;;;;;;5101022;28;20103;-65
2022/01/13 00:57:06;;;;;;;149.27;54.78;;;2.70;99.90;;;;;;5095197;28;20024;-65
2022/01/13 00:59:32;;;;;;;146.07;53.97;;;2.70;99.90;;;;;;5095179;28;20028;-65
2022/01/13 01:01:57;;;;;;;142.55;53.70;;;2.70;99.90;;;;;;5095708;28;20020;-65
2022/01/13 01:04:24;;;;;;;151.25;53.45;;;2.70;99.90;;;;;;5095037;28;20024;-65
2022/01/13 01:06:50;;;;;;;148.48;54.22;;;2.70;99.90;;;;;;5078318;28;20473;-65
2022/01/13 01:09:23;;;;;;;150.18;56.47;;;2.70;99.90;;;;;;5096834;28;20026;-65
2022/01/13 01:11:51;;;;;;;145.95;54.72;;;2.70;99.90;;;;;;5096782;28;20373;-65
2022/01/13 01:14:18;;;;;;;150.05;56.70;;;2.70;99.90;;;;;;5095314;28;20027;-65
2022/01/13 01:16:44;;;;;;;157.00;57.45;;;2.70;99.90;;;;;;5094867;28;20476;-66
2022/01/13 01:19:11;;;;;;;160.25;57.20;;;2.70;99.90;;;;;;5078076;28;20028;-65
2022/01/13 01:24:26;;;;;;;153.63;58.35;;;2.80;99.90;;;;;;5095920;28;20024;-65
2022/01/13 01:26:56;;;;;;;170.68;59.28;;;2.80;99.90;;;;;;5096216;28;20058;-65
2022/01/13 01:29:28;;;;;;;172.60;61.38;;;2.80;99.90;;;;;;5095035;28;20016;-65
2022/01/13 01:31:56;;;;;;;172.83;60.73;;;2.70;99.90;;;;;;5078599;28;20024;-65
2022/01/13 01:35:01;;;;;;;162.75;57.97;;;2.80;99.90;;;;;;5077945;28;20477;-65
2022/01/13 01:37:17;;;;;;;170.38;58.75;;;2.70;99.90;;;;;;5094565;28;20074;-64
2022/01/13 01:39:45;;;;;;;168.95;58.05;;;2.80;99.90;;;;;;5095673;28;20069;-66
2022/01/13 01:42:10;;;;;;;186.45;60.25;;;2.80;99.90;;;;;;5094076;28;20460;-65
2022/01/13 01:44:41;;;;;;;181.52;59.47;;;2.70;99.90;;;;;;5094671;28;20055;-65
2022/01/13 01:47:10;;;;;;;183.40;59.90;;;2.70;99.90;;;;;;5094354;28;20111;-65
2022/01/13 01:49:41;;;;;;;183.82;58.97;;;2.70;99.90;;;;;;5077396;28;20103;-65
2022/01/13 01:52:08;;;;;;;185.75;59.70;;;2.70;99.90;;;;;;5094131;28;20024;-65
2022/01/13 01:54:34;;;;;;;184.48;60.83;;;2.70;99.90;;;;;;5077461;28;20074;-65
2022/01/13 01:56:59;;;;;;;185.32;61.00;;;2.80;99.90;;;;;;5095617;28;20058;-65
2022/01/13 01:59:29;;;;;;;191.75;60.13;;;2.80;99.90;;;;;;5094665;28;20028;-65
2022/01/13 02:01:56;;;;;;;178.95;57.22;;;2.80;99.90;;;;;;5077491;28;20024;-65
2022/01/13 02:04:24;;;;;;;187.32;61.25;;;2.80;99.90;;;;;;5095745;28;20017;-66
2022/01/13 02:06:50;;;;;;;184.02;59.45;;;2.80;99.90;;;;;;5092848;28;20421;-65
2022/01/13 02:09:17;;;;;;;185.35;60.08;;;2.80;99.90;;;;;;5076964;28;20081;-65
2022/01/13 02:11:47;;;;;;;189.73;59.58;;;2.80;99.90;;;;;;5095612;28;20023;-65
2022/01/13 02:14:35;;;;;;;167.45;58.70;;;2.80;99.90;;;;;;5111047;27;20451;-66
2022/01/13 02:17:08;;;;;;;168.57;57.58;;;2.80;99.90;;;;;;5094255;28;20020;-65
2022/01/13 02:19:35;;;;;;;;;;;2.80;99.90;;;;;;5094229;28;20016;-66
2022/01/13 02:22:01;;;;;;;144.38;48.47;;;2.80;99.90;;;;;;5095325;28;19912;-66
2022/01/13 02:24:27;;;;;;;141.43;49.83;;;2.80;99.90;;;;;;5076694;28;20016;-66
2022/01/13 02:26:52;;;;;;;147.80;50.45;;;2.80;99.90;;;;;;5076724;28;20119;-65
2022/01/13 02:29:18;;;;;;;139.80;49.33;;;2.80;99.90;;;;;;5093418;28;20052;-65
2022/01/13 02:31:43;;;;;;;125.63;46.83;;;2.80;99.90;;;;;;5095226;28;20108;-65
2022/01/13 02:34:09;;;;;;;134.13;49.65;;;2.80;99.90;;;;;;5093709;28;20470;-65
2022/01/13 02:36:37;;;;;;;139.73;49.75;;;2.80;99.90;;;;;;5076411;28;20023;-65
2022/01/13 02:39:04;;;;;;;135.20;49.13;;;2.80;99.90;;;;;;5076709;28;20063;-65
2022/01/13 02:41:30;;;;;;;133.82;47.90;;;2.80;99.90;;;;;;5093636;28;20370;-65
2022/01/13 02:43:58;;;;;;;133.43;47.05;;;2.80;99.90;;;;;;5093089;28;20502;-65
2022/01/13 02:46:32;;;;;;;126.80;44.75;;;2.80;99.90;;;;;;5093946;28;20429;-65
2022/01/13 02:48:59;;;;;;;120.13;43.97;;;2.80;99.90;;;;;;5093804;28;20024;-65
2022/01/13 02:51:26;;;;;;;129.35;46.55;;;2.80;99.90;;;;;;5094829;28;20063;-65
2022/01/13 02:53:52;;;;;;;121.50;46.05;;;2.80;99.90;;;;;;5076282;28;20109;-65
2022/01/13 02:56:18;;;;;;;133.68;45.30;;;2.80;99.90;;;;;;5076038;28;20059;-65
2022/01/13 02:58:45;;;;;;;125.63;45.38;;;2.80;99.90;;;;;;5094712;28;20031;-65
2022/01/13 03:01:11;;;;;;;134.98;47.58;;;2.80;99.90;;;;;;5094699;28;20020;-65
2022/01/13 03:03:38;;;;;;;121.20;44.97;;;2.80;99.90;;;;;;5094063;28;20389;-65
2022/01/13 03:06:09;;;;;;;124.95;46.38;;;2.80;99.90;;;;;;5093238;28;20103;-65
2022/01/13 03:08:36;;;;;;;138.60;47.45;;;2.80;99.90;;;;;;5092885;28;20024;-66
2022/01/13 03:11:02;;;;;;;126.05;45.15;;;2.70;99.90;;;;;;5092781;28;20469;-65
2022/01/13 03:13:29;;;;;;;136.10;48.60;;;2.70;99.90;;;;;;5093039;28;20028;-65
2022/01/13 03:15:54;;;;;;;141.85;47.88;;;2.70;99.90;;;;;;5092764;28;20047;-65
2022/01/13 03:18:20;;;;;;;129.60;47.25;;;2.70;99.90;;;;;;5093028;28;20377;-66
2022/01/13 03:20:46;;;;;;;145.85;47.83;;;2.70;99.90;;;;;;5092932;28;20350;-65
2022/01/13 03:23:16;;;;;;;145.38;49.20;;;2.70;99.90;;;;;;5075694;28;20028;-65
2022/01/13 03:25:44;;;;;;;144.73;48.08;;;2.70;99.90;;;;;;5093223;28;20511;-65
2022/01/13 03:28:15;;;;;;;152.80;49.65;;;2.70;99.90;;;;;;5092895;28;20020;-66
2022/01/13 03:30:41;;;;;;;150.07;49.75;;;2.70;99.90;;;;;;5092510;28;20027;-65
2022/01/13 03:33:07;;;;;;;139.25;47.65;;;2.60;99.90;;;;;;5094240;28;20028;-65
2022/01/13 03:35:33;;;;;;;146.43;48.25;;;2.60;99.90;;;;;;5092815;28;20457;-65
2022/01/13 03:37:59;;;;;;;154.85;49.63;;;2.70;99.90;;;;;;5092360;28;20035;-66
2022/01/13 03:40:26;;;;;;;147.27;51.00;;;2.60;99.90;;;;;;5093877;28;20032;-66
2022/01/13 03:42:53;;;;;;;151.68;47.65;;;2.60;99.90;;;;;;5075210;28;20048;-65
2022/01/13 03:45:21;;;;;;;171.50;51.22;;;2.60;99.90;;;;;;5092705;28;20020;-65
2022/01/13 03:47:46;;;;;;;152.63;49.63;;;2.70;99.90;;;;;;5092291;28;20056;-65
2022/01/13 03:50:13;;;;;;;166.98;52.10;;;2.60;99.90;;;;;;5092280;28;20082;-65
2022/01/13 03:56:00;;;;;;;155.13;50.38;;;2.60;99.90;;;;;;5070917;28;19917;-79
2022/01/13 03:59:05;;;;;;;153.38;47.92;;;2.70;99.90;;;;;;5056103;28;20025;-80
2022/01/13 04:02:10;;;;;;;149.57;48.95;;;2.60;99.90;;;;;;5069503;28;20021;-80
2022/01/13 04:04:41;;;;;;;147.43;48.42;;;2.60;99.90;;;;;;5069382;28;20029;-79
2022/01/13 04:07:14;;;;;;;150.75;49.60;;;2.60;99.90;;;;;;5053322;28;20028;-79
2022/01/13 04:12:20;;;;;;;145.32;49.92;;;2.60;99.90;;;;;;5132766;27;20104;-65
2022/01/13 04:14:50;;;;;;;145.30;48.90;;;2.60;99.90;;;;;;5132460;28;20058;-65
2022/01/13 04:17:17;;;;;;;152.43;50.63;;;2.60;99.90;;;;;;5113460;28;20027;-65
2022/01/13 04:19:44;;;;;;;153.65;50.15;;;2.60;99.90;;;;;;5131799;28;20016;-65
2022/01/13 04:22:10;;;;;;;173.27;52.40;;;2.60;99.90;;;;;;5132295;28;20035;-66
2022/01/13 04:24:38;;;;;;;152.82;50.78;;;2.60;99.90;;;;;;5113414;28;20050;-65
2022/01/13 04:27:04;;;;;;;165.13;53.17;;;2.60;99.90;;;;;;5131658;28;20023;-65
2022/01/13 04:29:35;;;;;;;160.23;49.78;;;2.60;99.90;;;;;;5113623;28;20034;-65
2022/01/13 04:32:02;;;;;;;168.38;53.75;;;2.60;99.90;;;;;;5131754;28;20019;-65
2022/01/13 04:34:27;;;;;;;173.35;54.05;;;2.60;99.90;;;;;;5113228;28;20047;-66
2022/01/13 04:36:56;;;;;;;181.45;51.95;;;2.60;99.90;;;;;;5113491;28;20046;-65
2022/01/13 04:39:21;;;;;;;180.23;52.97;;;2.60;99.90;;;;;;5113033;28;20058;-65
2022/01/13 04:41:48;;;;;;;178.55;53.72;;;2.60;99.90;;;;;;5131890;28;20464;-65
2022/01/13 04:44:17;;;;;;;195.77;55.42;;;2.60;99.90;;;;;;5131900;28;20023;-65
2022/01/13 04:46:44;;;;;;;183.55;53.00;;;2.60;99.90;;;;;;5112967;28;20118;-66
2022/01/13 04:49:10;;;;;;;181.55;54.30;;;2.60;99.90;;;;;;5113460;28;20387;-63
2022/01/13 04:51:38;;;;;;;188.60;54.53;;;2.60;99.90;;;;;;5113148;28;20072;-65
2022/01/13 04:54:04;;;;;;;208.18;57.75;;;2.60;99.90;;;;;;5131745;28;20023;-66
2022/01/13 04:56:39;;;;;;;213.05;56.85;;;2.60;99.90;;;;;;5131395;28;20027;-65
2022/01/13 04:59:06;;;;;;;204.05;55.65;;;2.60;99.90;;;;;;5097890;28;20081;-66
2022/01/13 05:01:32;;;;;;;215.60;58.35;;;2.50;99.90;;;;;;5113018;28;20028;-65
2022/01/13 05:03:58;;;;;;;204.18;56.90;;;2.60;99.90;;;;;;5113009;28;20031;-65
2022/01/13 05:06:24;;;;;;;224.15;58.00;;;2.60;99.90;;;;;;5130927;28;20034;-65
2022/01/13 05:08:49;;;;;;;208.88;57.35;;;2.60;99.90;;;;;;5131414;28;20019;-65
2022/01/13 05:11:17;;;;;;;212.38;56.75;;;2.60;99.90;;;;;;5112258;28;20058;-65
2022/01/13 05:13:43;;;;;;;212.15;56.55;;;2.50;99.90;;;;;;5095441;28;20023;-65
2022/01/13 05:16:18;;;;;;;212.82;58.05;;;2.60;99.90;;;;;;5112329;28;20020;-65
2022/01/13 05:18:53;;;;;;;201.25;55.83;;;2.60;99.90;;;;;;5096598;28;20020;-65
2022/01/13 05:21:22;;;;;;;201.02;56.75;;;2.50;99.90;;;;;;5131203;28;20060;-65
2022/01/13 05:23:49;;;;;;;194.73;54.28;;;2.50;99.90;;;;;;5115522;28;20015;-66
2022/01/13 05:26:15;;;;;;;186.40;54.08;;;2.50;99.90;;;;;;5117126;28;20023;-66
2022/01/13 05:28:41;;;;;;;183.65;56.53;;;2.50;99.90;;;;;;5117361;28;20063;-65
2022/01/13 05:31:07;;;;;;;205.80;56.92;;;2.50;99.90;;;;;;5099235;28;20063;-65
2022/01/13 05:33:42;;;;;;;195.70;56.75;;;2.50;99.90;;;;;;5099119;28;20132;-65
2022/01/13 05:36:08;;;;;;;191.02;53.80;;;2.50;99.90;;;;;;5081661;28;20019;-65
2022/01/13 05:38:33;;;;;;;202.45;56.92;;;2.50;99.90;;;;;;5116879;28;20020;-65
2022/01/13 05:40:59;;;;;;;201.23;57.10;;;2.50;99.90;;;;;;5117138;28;20040;-65
2022/01/13 05:43:25;;;;;;;215.95;59.00;;;2.50;99.90;;;;;;5098285;28;20034;-65
2022/01/13 05:45:51;;;;;;;206.32;60.05;;;2.50;99.90;;;;;;5098762;28;20027;-65
2022/01/13 05:48:17;;;;;;;232.45;58.63;;;2.50;99.90;;;;;;5115688;28;20030;-65
2022/01/13 05:50:43;;;;;;;214.88;56.72;;;2.50;99.90;;;;;;5116852;28;20106;-65
2022/01/13 05:53:08;;;;;;;230.82;59.88;;;2.50;99.90;;;;;;5098964;28;20077;-65
2022/01/13 05:55:34;;;;;;;224.68;59.42;;;2.50;99.90;;;;;;5098655;28;20027;-65
2022/01/13 05:58:00;;;;;;;236.65;61.60;;;2.50;99.90;;;;;;5097945;28;20069;-65
2022/01/13 06:00:26;;;;;;;221.57;60.08;;;2.50;99.90;;;;;;5116780;28;20023;-65
2022/01/13 06:02:52;;;;;;;236.35;62.70;;;2.50;99.90;;;;;;5097865;28;20023;-65
2022/01/13 06:05:18;;;;;;;234.20;62.65;;;2.50;99.90;;;;;;5116678;28;20149;-65
2022/01/13 06:07:44;;;;;;;242.10;64.55;;;2.50;99.90;;;;;;5098046;28;20107;-65
2022/01/13 06:10:14;;;;;;;253.25;68.50;;;2.50;99.90;;;;;;5097717;28;20094;-64
2022/01/13 06:12:40;;;;;;;235.60;63.60;;;2.50;99.90;;;;;;5098809;28;20456;-65
2022/01/13 06:15:11;;;;;;;227.32;60.15;;;2.50;99.90;;;;;;5080844;28;20024;-65
2022/01/13 06:17:39;;;;;;;245.07;65.60;;;2.50;99.90;;;;;;5098016;28;20019;-65
2022/01/13 06:20:07;;;;;;;246.45;67.15;;;2.50;99.90;;;;;;5097531;28;20024;-65
2022/01/13 06:22:32;;;;;;;251.13;66.15;;;2.50;99.90;;;;;;5097609;28;20030;-66
2022/01/13 06:24:58;;;;;;;235.95;63.90;;;2.50;99.90;;;;;;5116279;28;20024;-65
2022/01/13 06:27:24;;;;;;;252.00;68.50;;;2.50;99.90;;;;;;5098192;28;20100;-65
2022/01/13 06:29:51;;;;;;;261.35;72.32;;;2.50;99.90;;;;;;5115962;28;20073;-65
2022/01/13 06:32:17;;;;;;;261.35;69.15;;;2.50;99.90;;;;;;5080544;28;20445;-65
2022/01/13 06:34:42;;;;;;;288.52;73.53;;;2.50;99.90;;;;;;5096934;28;20039;-65
2022/01/13 06:37:08;;;;;;;284.88;70.68;;;2.50;99.90;;;;;;5097802;28;20504;-66
2022/01/13 06:39:33;;;;;;;271.30;70.13;;;2.50;99.90;;;;;;5097842;28;20019;-66
2022/01/13 06:41:59;;;;;;;262.80;69.25;;;2.50;99.90;;;;;;5115919;28;20024;-65
2022/01/13 06:44:24;;;;;;;261.67;69.93;;;2.50;99.90;;;;;;5080380;28;20051;-65
2022/01/13 06:46:50;;;;;;;240.85;65.32;;;2.50;99.90;;;;;;5115401;28;20030;-66
2022/01/13 06:49:16;;;;;;;240.07;63.38;;;2.50;99.90;;;;;;5097067;28;20024;-65
2022/01/13 06:51:41;;;;;;;234.63;63.67;;;2.50;99.90;;;;;;5080047;28;20031;-65
2022/01/13 06:54:06;;;;;;;226.63;61.90;;;2.50;99.90;;;;;;5115135;28;20015;-65
2022/01/13 06:56:32;;;;;;;220.45;62.90;;;2.50;99.90;;;;;;5115369;28;20039;-65
2022/01/13 06:58:58;;;;;;;235.55;61.58;;;2.50;99.90;;;;;;5096723;28;20472;-66
2022/01/13 07:01:23;;;;;;;244.43;65.50;;;2.40;99.90;;;;;;5097460;28;20024;-65
2022/01/13 07:03:50;;;;;;;245.63;64.32;;;2.50;99.90;;;;;;5096314;28;20030;-65
2022/01/13 07:06:15;;;;;;;258.48;65.93;;;2.50;99.90;;;;;;5095520;28;20408;-65
2022/01/13 07:08:41;;;;;;;270.48;70.28;;;2.40;99.90;;;;;;5098847;28;20023;-65
2022/01/13 07:11:06;;;;;;;271.25;67.13;;;2.40;99.90;;;;;;5114457;28;20512;-65
2022/01/13 07:13:33;;;;;;;255.60;67.38;;;2.50;99.90;;;;;;5091689;28;20020;-65
2022/01/13 07:16:01;;;;;;;245.77;63.67;;;2.50;99.90;;;;;;5106311;28;20027;-65
2022/01/13 07:18:27;;;;;;;239.85;64.68;;;2.50;99.90;;;;;;5094453;28;20111;-65
2022/01/13 07:20:52;;;;;;;240.82;64.53;;;2.50;99.90;;;;;;5096384;28;20041;-66
2022/01/13 07:23:18;;;;;;;245.57;67.82;;;2.50;99.90;;;;;;5113986;28;20027;-63
2022/01/13 07:25:43;;;;;;;253.68;67.13;;;2.50;99.90;;;;;;5114453;28;20023;-65
2022/01/13 07:28:10;;;;;;;240.13;62.53;;;2.50;99.90;;;;;;5096330;28;20040;-68
2022/01/13 07:30:36;;;;;;;242.73;64.75;;;2.50;99.90;;;;;;5112692;28;20372;-66
2022/01/13 07:33:02;;;;;;;232.38;64.93;;;2.50;99.90;;;;;;5114568;28;20020;-66
2022/01/13 07:35:27;;;;;;;254.98;67.25;;;2.60;99.90;;;;;;5096455;28;20098;-66
2022/01/13 07:37:53;;;;;;;257.52;64.65;;;2.60;99.90;;;;;;5114552;28;20520;-66
2022/01/13 07:40:19;;;;;;;233.73;63.97;;;2.60;99.90;;;;;;5103465;28;20076;-66
2022/01/13 07:42:46;;;;;;;226.73;66.18;;;2.60;99.90;;;;;;5111731;28;20164;-66
2022/01/13 07:45:13;;;;;;;222.73;62.58;;;2.60;99.90;;;;;;5092760;28;20035;-66
2022/01/13 07:47:40;;;;;;;216.35;63.45;;;2.50;99.90;;;;;;5071653;28;20032;-66
2022/01/13 07:50:07;;;;;;;212.38;60.45;;;2.60;99.90;;;;;;5102984;28;20031;-66
2022/01/13 07:52:32;;;;;;;211.80;63.10;;;2.60;99.90;;;;;;5110749;28;20020;-65
2022/01/13 07:54:58;;;;;;;203.10;61.55;;;2.60;99.90;;;;;;5099143;28;20016;-66
2022/01/13 07:57:24;;;;;;;195.65;58.30;;;2.60;99.90;;;;;;5094813;28;20047;-60
2022/01/13 07:59:49;;;;;;;192.88;59.65;;;2.70;99.90;;;;;;5105445;28;20487;-60
2022/01/13 08:02:15;;;;;;;209.55;58.05;;;2.70;99.90;;;;;;5112252;28;20059;-60
2022/01/13 08:04:40;;;;;;;195.18;58.72;;;2.60;99.90;;;;;;5077746;28;20028;-60
2022/01/13 08:07:06;;;;;;;198.43;60.05;;;2.60;99.90;;;;;;5100875;28;20028;-65
2022/01/13 08:09:31;;;;;;;191.02;55.80;;;2.70;99.90;;;;;;5088588;28;20414;-65
2022/01/13 08:11:57;;;;;;;207.85;60.05;;;2.70;99.90;;;;;;5092982;28;20492;-65
2022/01/13 08:14:22;;;;;;;194.63;55.53;;;2.60;99.90;;;;;;5103961;28;20024;-65
2022/01/13 08:16:49;;;;;;;188.82;57.03;;;2.60;99.90;;;;;;5093420;28;20028;-65
2022/01/13 08:19:46;;;;;;;204.68;60.22;;;2.60;99.90;;;;;;5098060;28;20031;-65
2022/01/13 08:22:00;;;;;;;207.70;58.17;;;2.60;99.90;;;;;;5081481;28;20058;-65
2022/01/13 08:24:26;;;;;;;208.32;59.90;;;2.60;99.90;;;;;;5083982;28;20024;-65
2022/01/13 08:26:51;;;;;;;196.35;56.63;;;2.60;99.90;;;;;;5107053;28;20031;-65
2022/01/13 08:29:17;;;;;;;195.27;56.70;;;2.70;99.90;;;;;;5083155;28;20110;-65
2022/01/13 08:31:43;;;;;;;181.73;55.30;;;2.60;99.90;;;;;;5095945;28;20031;-65
2022/01/13 08:34:08;;;;;;;206.32;59.15;;;2.60;99.90;;;;;;5087110;28;20038;-65
2022/01/13 08:36:34;;;;;;;195.27;58.30;;;2.60;99.90;;;;;;5116978;28;20507;-65
2022/01/13 08:38:59;;;;;;;191.30;56.15;;;2.60;99.90;;;;;;5092430;28;20031;-65
2022/01/13 08:41:25;;;;;;;202.60;57.85;;;2.60;99.90;;;;;;5092997;28;20020;-66
2022/01/13 08:43:53;;;;;;;196.75;56.85;;;2.60;99.90;;;;;;5074722;28;20052;-65
2022/01/13 08:46:18;;;;;;;197.85;59.05;;;2.60;99.90;;;;;;5103279;28;20790;-65
2022/01/13 08:48:44;;;;;;;199.75;59.38;;;2.60;99.90;;;;;;5111733;28;20027;-66
2022/01/13 08:51:10;;;;;;;206.48;59.42;;;2.60;99.90;;;;;;5113401;28;20028;-65
2022/01/13 08:53:38;;;;;;;189.70;58.13;;;2.70;99.90;;;;;;5093305;28;20434;-66
2022/01/13 08:56:03;;;;;;;183.85;56.00;;;2.70;99.90;;;;;;5122249;28;20019;-66
2022/01/13 08:58:29;;;;;;;196.18;59.63;;;2.70;99.90;;;;;;5098643;28;20034;-66
2022/01/13 09:00:56;;;;;;;200.27;59.67;;;2.70;99.90;;;;;;5097678;28;20032;-65
2022/01/13 09:03:22;;;;;;;201.25;59.38;;;2.70;99.90;;;;;;5096701;28;20039;-65
2022/01/13 09:05:48;;;;;;;194.25;60.03;;;2.70;99.90;;;;;;5117128;28;20023;-65
2022/01/13 09:08:14;;;;;;;206.38;60.97;;;2.70;99.90;;;;;;5078238;28;20385;-65
2022/01/13 09:10:42;;;;;;;195.02;57.33;;;2.70;99.90;;;;;;5107829;28;20051;-65
2022/01/13 09:13:11;;;;;;;191.38;56.90;;;2.70;99.90;;;;;;5089055;28;20024;-66
2022/01/13 09:15:41;;;;;;;192.65;57.83;;;2.70;99.90;;;;;;5105445;28;20027;-66
2022/01/13 09:18:10;;;;;;;190.30;58.30;;;2.70;99.90;;;;;;5099708;28;20095;-65
2022/01/13 09:20:38;;;;;;;190.82;58.03;;;2.80;99.90;;;;;;5097641;28;20469;-66
2022/01/13 09:23:04;;;;;;;198.73;57.92;;;2.80;99.90;;;;;;5102847;28;20027;-66
2022/01/13 09:25:29;;;;;;;186.50;55.20;;;2.80;99.90;;;;;;5094300;28;20490;-65
2022/01/13 09:27:55;;;;;;;185.48;59.10;;;2.80;99.90;;;;;;5101372;28;20028;-65
2022/01/13 09:30:22;;;;;;;199.18;58.95;;;2.80;99.90;;;;;;5078664;28;20028;-66
2022/01/13 09:32:47;;;;;;;197.63;59.15;;;2.80;99.90;;;;;;5098919;28;20164;-65
2022/01/13 09:35:13;;;;;;;198.52;57.63;;;2.90;99.90;;;;;;5116819;28;20469;-65
2022/01/13 09:37:39;;;;;;;183.05;57.88;;;2.90;99.90;;;;;;5097458;28;20567;-65
2022/01/13 09:40:07;;;;;;;193.52;60.58;;;2.90;99.90;;;;;;5078561;28;20076;-65
2022/01/13 09:42:34;;;;;;;182.07;58.55;;;2.90;99.90;;;;;;5096266;28;20028;-65
2022/01/13 09:45:01;;;;;;;194.55;60.10;;;2.90;99.90;;;;;;5085373;28;20055;-66
2022/01/13 09:47:29;;;;;;;183.85;59.15;;;2.90;99.90;;;;;;5098503;28;20016;-65
2022/01/13 09:49:55;;;;;;;201.88;59.70;;;2.90;99.90;;;;;;5104293;28;20012;-65
2022/01/13 09:52:20;;;;;;;196.35;58.50;;;2.90;99.90;;;;;;5115209;28;20039;-66
2022/01/13 09:54:47;;;;;;;203.43;58.58;;;2.90;99.90;;;;;;5116063;28;20496;-65
2022/01/13 09:57:13;;;;;;;217.38;63.78;;;3.00;99.90;;;;;;5098304;28;20111;-65
2022/01/13 09:59:39;;;;;;;201.73;61.03;;;3.00;99.90;;;;;;5098223;28;20095;-65
2022/01/13 10:02:04;;;;;;;226.10;63.45;;;3.00;99.90;;;;;;5095800;28;20453;-65
2022/01/13 10:04:51;;;;;;;227.80;66.32;;;3.00;99.90;;;;;;5080958;28;20477;-66
2022/01/13 10:07:37;;;;;;;240.20;66.82;;;3.00;99.90;;;;;;5115943;28;20035;-65
2022/01/13 10:10:07;;;;;;;217.73;63.30;;;2.90;99.90;;;;;;5114851;28;20765;-64
2022/01/13 10:12:38;;;;;;;237.60;68.30;;;2.90;99.90;;;;;;5115692;28;20099;-68
2022/01/13 10:17:48;;;;;;;247.80;68.05;;;3.00;99.90;;;;;;5116594;28;20038;-64
2022/01/13 10:20:16;;;;;;;268.63;75.18;;;3.00;99.90;;;;;;5097001;28;20103;-66
2022/01/13 10:22:42;;;;;;;279.58;75.43;;;3.00;99.90;;;;;;5109844;28;20024;-65
2022/01/13 10:25:24;;;;;;;263.48;74.07;;;3.00;99.90;;;;;;5095830;28;20377;-65
2022/01/13 10:27:50;;;;;;;274.90;70.72;;;3.00;99.90;;;;;;5067533;28;20023;-65
2022/01/13 10:30:26;;;;;;;280.00;75.95;;;3.00;99.90;;;;;;5097285;28;20020;-65
2022/01/13 10:32:52;;;;;;;281.13;73.72;;;3.00;99.90;;;;;;5102978;28;20107;-65
2022/01/13 10:35:21;;;;;;;270.98;74.60;;;3.00;99.90;;;;;;5076021;28;20024;-65
2022/01/13 10:37:54;;;;;;;244.70;66.88;;;3.10;99.90;;;;;;5106428;28;20023;-65
2022/01/13 10:40:26;;;;;;;229.77;68.07;;;3.10;99.90;;;;;;5115422;28;20035;-65
2022/01/13 10:48:19;;;;;;;255.20;67.13;;;3.10;99.90;;;;;;5110688;27;20351;-61
2022/01/13 10:51:07;;;;;;;257.80;68.63;;;3.20;99.90;;;;;;5096210;28;20416;-61
2022/01/13 10:53:37;;;;;;;233.35;62.88;;;3.20;99.90;;;;;;5081147;28;20016;-61
2022/01/13 10:56:05;;;;;;;218.65;63.65;;;3.20;99.90;;;;;;5090494;28;20449;-67
2022/01/13 10:58:35;;;;;;;223.35;64.57;;;3.20;99.90;;;;;;5073169;28;20032;-67
2022/01/13 11:01:01;;;;;;;214.38;65.25;;;3.30;99.90;;;;;;5119295;28;20036;-66
2022/01/13 11:03:30;;;;;;;204.10;62.10;;;3.30;99.90;;;;;;5089410;28;20052;-65
2022/01/13 11:05:58;;;;;;;206.07;62.65;;;3.30;99.90;;;;;;5076809;28;20025;-64
2022/01/13 11:11:03;;;;;;;190.43;61.85;;;3.30;99.90;;;;;;5093944;28;20368;-65
2022/01/13 11:13:33;;;;;;;198.82;63.05;;;3.30;99.90;;;;;;5075813;28;20081;-66
2022/01/13 11:15:58;;;;;;;192.02;60.13;;;3.40;99.90;;;;;;5079045;28;20021;-66
2022/01/13 11:18:28;;;;;;;186.05;60.83;;;3.40;99.90;;;;;;5070268;28;20021;-66
2022/01/13 11:20:55;;;;;;;176.00;58.25;;;3.40;99.90;;;;;;5074137;28;20090;-67
2022/01/13 11:23:21;;;;;;;176.98;56.70;;;3.40;99.90;;;;;;5073030;28;20077;-64
2022/01/13 11:25:51;;;;;;;179.52;58.38;;;3.40;99.90;;;;;;5075145;28;20029;-64
2022/01/13 11:28:16;;;;;;;169.48;55.60;;;3.40;99.90;;;;;;5078942;28;20032;-65
2022/01/13 11:30:43;;;;;;;169.30;54.38;;;3.40;99.90;;;;;;5071641;28;20025;-65
2022/01/13 11:33:08;;;;;;;150.50;51.03;;;3.40;99.90;;;;;;5073299;28;20020;-64
2022/01/13 11:35:38;;;;;;;145.95;51.40;;;3.40;99.90;;;;;;5071435;28;20065;-65
2022/01/13 11:38:05;;;;;;;156.82;52.28;;;3.40;99.90;;;;;;5069088;28;20401;-66
2022/01/13 11:40:36;;;;;;;149.68;50.28;;;3.40;99.90;;;;;;5052501;28;20036;-66
2022/01/13 11:43:05;;;;;;;142.95;51.38;;;3.50;99.90;;;;;;5071292;28;20039;-67
2022/01/13 11:45:39;;;;;;;141.57;50.75;;;3.50;99.90;;;;;;5052631;28;20355;-66
2022/01/13 11:48:22;;;;;;;149.65;49.63;;;3.60;99.90;;;;;;5082563;28;20481;-66
2022/01/13 11:50:53;;;;;;;147.55;50.45;;;3.70;99.90;;;;;;5049077;28;20022;-66
2022/01/13 11:53:24;;;;;;;125.80;47.10;;;3.70;99.90;;;;;;5072895;28;20020;-61
2022/01/13 11:55:54;;;;;;;152.43;52.90;;;3.90;99.90;;;;;;5077984;28;20021;-61
2022/01/13 11:58:25;;;;;;;140.25;51.70;;;4.20;99.90;;;;;;5069864;28;20021;-66
2022/01/13 12:00:51;;;;;;;141.02;51.45;;;4.40;99.90;;;;;;5076468;28;20056;-65
2022/01/13 12:03:27;;;;;;;137.30;50.30;;;4.50;99.90;;;;;;5068593;28;20048;-67
2022/01/13 12:05:55;;;;;;;132.60;48.30;;;4.60;99.90;;;;;;5053294;28;20367;-66
2022/01/13 12:08:42;;;;;;;126.78;48.85;;;4.90;99.90;;;;;;5070103;28;20055;-64
2022/01/13 12:11:09;;;;;;;122.25;46.88;;;5.10;99.90;;;;;;5080594;28;20553;-66
2022/01/13 12:13:43;;;;;;;118.38;47.03;;;5.00;99.90;;;;;;5069830;28;20021;-66
2022/01/13 12:16:10;;;;;;;117.60;46.72;;;5.10;99.90;;;;;;5080623;28;20043;-66
2022/01/13 12:19:02;;;;;;;119.80;45.95;;;5.10;99.90;;;;;;5071609;28;20020;-65
2022/01/13 12:21:35;;;;;;;125.68;47.88;;;5.20;99.90;;;;;;5049656;28;20036;-66
2022/01/13 12:24:02;;;;;;;;;;;5.20;99.90;;;;;;5071464;28;20120;-66
2022/01/13 12:29:18;;;;;;;121.90;47.15;;;5.20;99.90;;;;;;5091105;27;20765;-65
2022/01/13 12:31:50;;;;;;;117.35;45.10;;;5.40;99.90;;;;;;5089387;28;20427;-66
2022/01/13 12:39:56;;;;;;;115.32;46.25;;;5.40;99.90;;;;;;5091827;27;20372;-66
2022/01/13 12:42:35;;;;;;;109.32;44.30;;;5.70;99.90;;;;;;5092269;28;20028;-66
2022/01/13 12:45:33;;;;;;;114.63;46.33;;;5.90;99.90;;;;;;5093551;28;20558;-66
2022/01/13 12:47:48;;;;;;;123.45;45.45;;;5.90;99.90;;;;;;5089706;28;20044;-66
2022/01/13 12:50:18;;;;;;;118.93;45.38;;;6.00;99.90;;;;;;5091416;28;20028;-66
2022/01/13 12:52:44;;;;;;;111.63;45.03;;;6.10;99.90;;;;;;5095698;28;20028;-67
2022/01/13 12:55:10;;;;;;;109.85;47.15;;;6.10;99.90;;;;;;5099597;28;20424;-66
2022/01/13 12:57:45;;;;;;;118.38;46.25;;;6.10;99.90;;;;;;5095903;28;20028;-67
2022/01/13 13:00:11;;;;;;;113.60;44.40;;;6.20;99.90;;;;;;5090501;28;20028;-66
2022/01/13 13:02:37;;;;;;;121.60;49.75;;;6.30;99.90;;;;;;5090777;28;20023;-66
2022/01/13 13:05:03;;;;;;;118.38;49.10;;;6.20;99.90;;;;;;5088872;28;20024;-66